createdAt,value
2022-09-12T00:00:23.423Z,11.34
2022-09-12T00:04:45.133Z,11.29
2022-09-12T00:09:10.691Z,11.24
2022-09-12T00:13:32.705Z,11.22
2022-09-12T00:17:54.450Z,11.17
2022-09-12T00:22:16.205Z,11.13
2022-09-12T00:26:38.445Z,11.11
2022-09-12T00:31:06.662Z,11.06
2022-09-12T00:35:28.324Z,11.01
2022-09-12T00:39:50.243Z,10.97
2022-09-12T00:44:11.900Z,10.96
2022-09-12T00:48:39.931Z,10.93
2022-09-12T00:53:08.577Z,10.92
2022-09-12T00:57:43.362Z,10.85
2022-09-12T01:02:12.749Z,10.81
2022-09-12T01:06:42.603Z,10.75
2022-09-12T01:11:12.973Z,10.73
2022-09-12T01:15:37.384Z,10.67
2022-09-12T01:20:14.653Z,10.62
2022-09-12T01:25:03.644Z,10.61
2022-09-12T01:29:39.757Z,10.51
2022-09-12T01:34:22.585Z,10.46
2022-09-12T01:39:23.598Z,10.44
2022-09-12T01:44:09.297Z,10.43
2022-09-12T01:49:00.825Z,10.39
2022-09-12T01:53:27.993Z,10.35
2022-09-12T01:57:57.937Z,10.32
2022-09-12T02:02:31.059Z,10.25
2022-09-12T02:07:17.738Z,10.09
2022-09-12T02:11:49.705Z,10.09
2022-09-12T02:16:40.120Z,10.07
2022-09-12T02:21:05.967Z,10.09
2022-09-12T02:25:29.287Z,10.11
2022-09-12T02:29:52.383Z,10.09
2022-09-12T02:34:46.288Z,10.07
2022-09-12T02:39:08.399Z,10.03
2022-09-12T02:43:36.731Z,10.00
2022-09-12T02:48:13.410Z,9.92
2022-09-12T02:52:36.843Z,9.90
2022-09-12T02:56:59.042Z,9.86
2022-09-12T03:01:58.667Z,9.85
2022-09-12T03:06:41.728Z,9.82
2022-09-12T03:11:09.264Z,9.79
2022-09-12T03:15:48.006Z,9.73
2022-09-12T03:20:28.769Z,9.72
2022-09-12T03:25:32.212Z,9.65
2022-09-12T03:29:58.085Z,9.60
2022-09-12T03:39:17.873Z,9.56
2022-09-12T03:44:00.809Z,9.56
2022-09-12T03:48:43.096Z,9.53
2022-09-12T03:53:09.017Z,9.51
2022-09-12T03:57:43.918Z,9.52
2022-09-12T04:02:07.160Z,9.48
2022-09-12T04:06:38.708Z,9.43
2022-09-12T04:11:26.110Z,9.41
2022-09-12T04:16:07.080Z,9.37
2022-09-12T04:20:36.662Z,9.34
2022-09-12T04:25:25.592Z,9.37
2022-09-12T04:30:35.273Z,9.34
2022-09-12T04:35:13.000Z,9.32
2022-09-12T04:39:41.629Z,9.29
2022-09-12T04:53:44.859Z,9.25
2022-09-12T05:02:49.548Z,9.23
2022-09-12T05:07:12.098Z,9.25
2022-09-12T05:16:27.719Z,9.21
2022-09-12T05:20:49.428Z,9.22
2022-09-12T05:25:11.425Z,9.22
2022-09-12T05:29:34.017Z,9.25
2022-09-12T05:34:02.742Z,9.30
2022-09-12T05:38:29.151Z,9.38
2022-09-12T05:42:50.898Z,9.39
2022-09-12T05:47:24.790Z,9.53
2022-09-12T05:52:02.136Z,9.72
2022-09-12T05:56:32.923Z,9.84
2022-09-12T06:01:17.379Z,9.95
2022-09-12T06:05:53.562Z,10.08
2022-09-12T06:10:35.503Z,10.22
2022-09-12T06:15:06.312Z,10.38
2022-09-12T06:20:11.673Z,10.58
2022-09-12T06:24:57.365Z,10.70
2022-09-12T06:29:36.801Z,11.29
2022-09-12T06:34:05.132Z,11.84
2022-09-12T06:38:46.706Z,12.12
2022-09-12T06:43:35.324Z,12.56
2022-09-12T06:48:13.861Z,13.07
2022-09-12T06:53:02.222Z,13.50
2022-09-12T07:02:18.994Z,14.32
2022-09-12T07:06:47.149Z,14.71
2022-09-12T07:11:37.368Z,15.09
2022-09-12T07:16:07.925Z,15.34
2022-09-12T07:25:29.111Z,16.08
2022-09-12T07:29:58.703Z,16.61
2022-09-12T07:39:13.157Z,17.69
2022-09-12T07:43:37.581Z,18.16
2022-09-12T07:48:03.097Z,18.52
2022-09-12T07:52:33.857Z,18.92
2022-09-12T07:57:06.553Z,19.32
2022-09-12T08:01:48.319Z,19.68
2022-09-12T08:11:15.039Z,20.08
2022-09-12T08:16:08.314Z,20.18
2022-09-12T08:20:35.366Z,20.15
2022-09-12T08:24:57.225Z,20.42
2022-09-12T08:29:36.101Z,20.90
2022-09-12T08:39:10.429Z,21.22
2022-09-12T08:44:02.198Z,21.41
2022-09-12T08:49:02.489Z,21.74
2022-09-12T08:53:48.662Z,21.95
2022-09-12T09:43:19.744Z,24.03
2022-09-12T09:54:05.453Z,24.43
2022-09-12T10:09:27.229Z,24.65
2022-09-12T10:19:10.103Z,24.92
2022-09-12T10:34:00.809Z,25.10
2022-09-12T10:44:49.089Z,25.34
2022-09-12T10:49:30.719Z,25.38
2022-09-12T10:54:05.508Z,25.45
2022-09-12T10:58:50.171Z,25.68
2022-09-12T11:03:28.995Z,25.76
2022-09-12T11:08:01.297Z,25.97
2022-09-12T11:12:54.269Z,25.76
2022-09-12T11:17:25.042Z,26.06
2022-09-12T11:22:02.454Z,26.20
2022-09-12T11:32:31.064Z,26.40
2022-09-12T11:37:32.116Z,26.42
2022-09-12T11:42:03.534Z,26.41
2022-09-12T11:46:42.995Z,26.42
2022-09-12T11:51:14.561Z,26.62
2022-09-12T11:55:47.483Z,26.76
2022-09-12T12:00:18.274Z,26.88
2022-09-12T12:04:59.037Z,26.97
2022-09-12T12:09:20.920Z,27.05
2022-09-12T12:14:04.314Z,27.17
2022-09-12T12:18:28.758Z,27.19
2022-09-12T12:22:53.144Z,26.99
2022-09-12T12:27:44.068Z,27.12
2022-09-12T12:32:12.171Z,27.14
2022-09-12T12:36:39.058Z,27.19
2022-09-12T12:41:19.110Z,27.04
2022-09-12T12:45:41.110Z,27.00
2022-09-12T12:50:08.254Z,26.95
2022-09-12T12:54:48.018Z,26.74
2022-09-12T12:59:21.902Z,26.78
2022-09-12T13:03:46.912Z,26.77
2022-09-12T13:08:33.237Z,26.76
2022-09-12T13:12:57.706Z,26.75
2022-09-12T13:17:30.965Z,26.89
2022-09-12T13:22:04.663Z,27.02
2022-09-12T13:26:26.645Z,27.13
2022-09-12T13:31:25.718Z,27.14
2022-09-12T13:36:22.386Z,27.12
2022-09-12T13:40:53.392Z,26.97
2022-09-12T13:45:21.325Z,26.99
2022-09-12T13:49:52.189Z,27.01
2022-09-12T13:54:23.829Z,26.94
2022-09-12T13:59:00.869Z,26.78
2022-09-12T14:03:58.993Z,26.87
2022-09-12T14:08:30.162Z,26.93
2022-09-12T14:12:53.901Z,26.96
2022-09-12T14:18:29.506Z,26.86
2022-09-12T16:51:22.008Z,24.35
2022-09-12T16:56:05.209Z,23.55
2022-09-12T17:00:27.182Z,23.08
2022-09-12T17:04:48.869Z,22.63
2022-09-12T17:09:11.331Z,22.24
2022-09-12T17:13:53.295Z,21.82
2022-09-12T17:18:22.399Z,21.51
2022-09-12T17:22:44.297Z,21.17
2022-09-12T17:27:06.329Z,20.90
2022-09-12T17:31:28.911Z,20.60
2022-09-12T17:35:50.898Z,20.38
2022-09-12T17:40:12.681Z,20.16
2022-09-12T17:44:35.935Z,19.91
2022-09-12T17:48:58.713Z,19.66
2022-09-12T17:53:27.266Z,19.45
2022-09-12T17:57:49.051Z,19.26
2022-09-12T18:02:12.684Z,18.98
2022-09-12T18:06:34.636Z,18.75
2022-09-12T18:11:11.424Z,18.61
2022-09-12T18:15:34.595Z,18.44
2022-09-12T18:20:03.390Z,18.30
2022-09-12T18:24:32.029Z,18.15
2022-09-12T18:29:00.237Z,17.97
2022-09-12T18:33:24.114Z,17.84
2022-09-12T18:37:46.373Z,17.69
2022-09-12T18:42:08.070Z,17.54
2022-09-12T18:46:30.914Z,17.44
2022-09-12T18:50:52.653Z,17.31
2022-09-12T18:55:15.025Z,17.18
2022-09-12T18:59:43.347Z,17.01
2022-09-12T19:04:07.542Z,16.89
2022-09-12T19:08:29.649Z,16.77
2022-09-12T19:12:58.381Z,16.65
2022-09-12T19:17:20.194Z,16.54
2022-09-12T19:21:43.073Z,16.42
2022-09-12T19:26:08.985Z,16.28
2022-09-12T19:30:30.721Z,16.19
2022-09-12T19:34:52.345Z,16.09
2022-09-12T19:39:15.395Z,15.99
2022-09-12T19:43:37.265Z,15.89
2022-09-12T19:47:59.154Z,15.79
2022-09-12T19:52:20.848Z,15.68
2022-09-12T19:56:42.603Z,15.56
2022-09-12T20:01:13.168Z,15.50
2022-09-12T20:05:38.507Z,15.40
2022-09-12T20:10:04.207Z,15.33
2022-09-12T20:14:25.859Z,15.31
2022-09-12T20:18:48.888Z,15.29
2022-09-12T20:23:17.290Z,15.23
2022-09-12T20:27:45.332Z,15.14
2022-09-12T20:32:07.296Z,15.12
2022-09-12T20:36:29.097Z,15.02
2022-09-12T20:40:51.276Z,14.85
2022-09-12T20:45:13.046Z,14.82
2022-09-12T20:49:41.501Z,14.76
2022-09-12T20:54:11.497Z,14.77
2022-09-12T20:58:34.040Z,14.71
2022-09-12T21:03:03.329Z,14.66
2022-09-12T21:07:25.094Z,14.60
2022-09-12T21:11:46.857Z,14.58
2022-09-12T21:16:15.076Z,14.49
2022-09-12T21:20:36.845Z,14.43
2022-09-12T21:25:05.348Z,14.34
2022-09-12T21:29:27.170Z,14.29
2022-09-12T21:33:49.399Z,14.25
2022-09-12T21:38:18.325Z,14.20
2022-09-12T21:42:40.233Z,14.20
2022-09-12T21:47:01.970Z,14.12
2022-09-12T21:51:30.350Z,14.08
2022-09-12T21:55:52.045Z,14.00
2022-09-12T22:00:15.840Z,13.91
2022-09-12T22:04:37.549Z,13.87
2022-09-12T22:08:59.310Z,13.84
2022-09-12T22:13:21.213Z,13.77
2022-09-12T22:17:42.909Z,13.72
2022-09-12T22:22:30.321Z,13.67
2022-09-12T22:26:51.965Z,13.62
2022-09-12T22:31:14.350Z,13.50
2022-09-12T22:35:42.426Z,13.47
2022-09-12T22:40:04.616Z,13.44
2022-09-12T22:44:26.291Z,13.41
2022-09-12T22:48:52.109Z,13.37
2022-09-12T22:53:16.614Z,13.34
2022-09-12T22:57:45.252Z,13.25
2022-09-12T23:02:12.397Z,13.16
2022-09-12T23:06:38.673Z,13.12
2022-09-12T23:11:11.590Z,13.09
2022-09-12T23:15:54.588Z,13.07
2022-09-12T23:25:04.795Z,12.99
2022-09-12T23:29:35.013Z,12.96
2022-09-12T23:34:14.422Z,12.93
2022-09-12T23:38:36.384Z,12.88
2022-09-12T23:42:58.048Z,12.81
2022-09-12T23:47:26.413Z,12.79
2022-09-12T23:51:48.110Z,12.71
2022-09-12T23:56:17.425Z,12.62
